createdAt,value
2022-08-28T00:00:40.714Z,5.18
2022-08-28T00:03:10.920Z,5.72
2022-08-28T00:05:40.015Z,5.38
2022-08-28T00:08:12.747Z,4.82
2022-08-28T00:10:42.336Z,5.90
2022-08-28T00:13:19.213Z,5.28
2022-08-28T00:15:51.091Z,5.30
2022-08-28T00:18:20.540Z,4.97
2022-08-28T00:20:49.646Z,5.75
2022-08-28T00:23:19.095Z,5.97
2022-08-28T00:25:46.671Z,5.90
2022-08-28T00:28:24.085Z,6.47
2022-08-28T00:30:57.232Z,5.10
2022-08-28T00:33:33.875Z,5.45
2022-08-28T00:36:02.502Z,4.90
2022-08-28T00:38:30.159Z,5.10
2022-08-28T00:41:03.838Z,5.00
2022-08-28T00:43:34.490Z,5.70
2022-08-28T00:46:05.461Z,5.10
2022-08-28T00:48:33.805Z,5.32
2022-08-28T00:51:23.127Z,4.70
2022-08-28T00:53:55.577Z,5.75
2022-08-28T00:58:57.007Z,4.53
2022-08-28T01:01:25.137Z,5.07
2022-08-28T01:03:52.855Z,5.60
2022-08-28T01:06:22.079Z,5.07
2022-08-28T01:08:52.257Z,5.30
2022-08-28T01:11:21.764Z,5.32
2022-08-28T01:13:51.322Z,5.35
2022-08-28T01:16:28.375Z,4.95
2022-08-28T01:19:00.981Z,5.50
2022-08-28T01:21:54.076Z,5.47
2022-08-28T01:24:21.874Z,4.90
2022-08-28T01:26:49.466Z,5.32
2022-08-28T01:29:17.283Z,4.63
2022-08-28T01:31:44.689Z,5.38
2022-08-28T01:34:14.048Z,5.40
2022-08-28T01:36:43.264Z,5.65
2022-08-28T01:39:15.733Z,5.35
2022-08-28T01:41:46.510Z,5.60
2022-08-28T01:44:18.146Z,5.18
2022-08-28T01:46:46.215Z,5.28
2022-08-28T01:49:14.644Z,4.95
2022-08-28T01:51:42.793Z,5.32
2022-08-28T01:54:12.506Z,5.13
2022-08-28T01:56:42.637Z,6.38
2022-08-28T01:59:11.605Z,5.30
2022-08-28T02:01:40.231Z,5.68
2022-08-28T02:04:07.880Z,5.30
2022-08-28T02:06:36.696Z,5.40
2022-08-28T02:09:06.456Z,5.90
2022-08-28T02:11:46.604Z,5.43
2022-08-28T02:14:16.369Z,6.13
2022-08-28T02:16:43.933Z,5.07
2022-08-28T02:19:12.627Z,5.10
2022-08-28T02:21:40.295Z,5.45
2022-08-28T02:24:09.701Z,6.28
2022-08-28T02:26:37.296Z,5.97
2022-08-28T02:29:05.584Z,6.05
2022-08-28T02:31:33.364Z,5.50
2022-08-28T02:34:01.758Z,5.65
2022-08-28T02:36:29.395Z,5.20
2022-08-28T02:38:58.047Z,4.63
2022-08-28T02:41:26.437Z,5.32
2022-08-28T02:43:55.225Z,5.00
2022-08-28T02:46:22.633Z,5.80
2022-08-28T02:48:50.965Z,5.55
2022-08-28T02:51:20.238Z,5.72
2022-08-28T02:53:48.252Z,6.07
2022-08-28T02:56:15.978Z,4.65
2022-08-28T02:58:43.740Z,5.38
2022-08-28T03:01:13.552Z,5.40
2022-08-28T03:03:42.045Z,5.60
2022-08-28T03:06:12.682Z,5.20
2022-08-28T03:08:44.648Z,5.20
2022-08-28T03:11:13.278Z,5.88
2022-08-28T03:13:42.076Z,5.50
2022-08-28T03:16:09.737Z,5.03
2022-08-28T03:18:37.389Z,5.38
2022-08-28T03:21:05.759Z,6.00
2022-08-28T03:23:33.125Z,5.55
2022-08-28T03:26:10.782Z,6.30
2022-08-28T03:28:42.085Z,5.70
2022-08-28T03:31:12.336Z,5.28
2022-08-28T03:33:42.841Z,4.78
2022-08-28T03:36:13.780Z,5.85
2022-08-28T03:38:42.088Z,6.32
2022-08-28T03:41:13.864Z,5.00
2022-08-28T03:43:44.808Z,4.85
2022-08-28T03:46:19.435Z,5.78
2022-08-28T03:48:47.485Z,5.63
2022-08-28T03:51:18.868Z,5.90
2022-08-28T03:53:49.804Z,5.57
2022-08-28T03:56:22.109Z,5.97
2022-08-28T03:58:52.846Z,5.28
2022-08-28T04:01:21.534Z,6.18
2022-08-28T04:03:49.506Z,5.80
2022-08-28T04:06:17.087Z,5.45
2022-08-28T04:08:44.952Z,5.35
2022-08-28T04:11:13.394Z,6.32
2022-08-28T04:13:41.898Z,6.10
2022-08-28T04:16:12.714Z,5.65
2022-08-28T04:18:42.256Z,5.53
2022-08-28T04:21:29.139Z,5.60
2022-08-28T04:23:58.972Z,5.45
2022-08-28T04:26:28.457Z,6.88
2022-08-28T04:28:56.298Z,6.72
2022-08-28T04:31:31.373Z,6.07
2022-08-28T04:34:02.544Z,5.68
2022-08-28T04:36:30.156Z,6.72
2022-08-28T04:38:59.509Z,7.10
2022-08-28T04:41:27.840Z,6.60
2022-08-28T04:43:57.914Z,7.35
2022-08-28T04:46:25.941Z,6.47
2022-08-28T04:48:53.746Z,6.95
2022-08-28T04:51:21.441Z,6.63
2022-08-28T04:53:49.305Z,7.15
2022-08-28T04:56:17.315Z,6.55
2022-08-28T04:58:44.922Z,6.88
2022-08-28T05:01:21.828Z,6.93
2022-08-28T05:03:53.175Z,7.07
2022-08-28T05:06:22.076Z,7.03
2022-08-28T05:08:49.881Z,7.00
2022-08-28T05:11:27.292Z,7.63
2022-08-28T05:14:12.665Z,7.28
2022-08-28T05:16:45.845Z,7.20
2022-08-28T05:19:13.635Z,8.88
2022-08-28T05:21:41.441Z,7.60
2022-08-28T05:24:09.798Z,6.97
2022-08-28T05:26:40.197Z,7.28
2022-08-28T05:29:08.766Z,7.32
2022-08-28T05:31:39.318Z,7.22
2022-08-28T05:34:07.992Z,7.50
2022-08-28T05:36:37.134Z,7.85
2022-08-28T05:39:11.120Z,7.50
2022-08-28T05:41:44.767Z,7.87
2022-08-28T05:44:15.606Z,7.10
2022-08-28T05:46:46.965Z,7.72
2022-08-28T05:49:16.065Z,7.20
2022-08-28T05:51:44.529Z,6.70
2022-08-28T05:54:13.066Z,7.32
2022-08-28T05:56:41.290Z,8.15
2022-08-28T05:59:11.040Z,6.82
2022-08-28T06:01:47.271Z,7.80
2022-08-28T06:04:19.130Z,6.80
2022-08-28T06:06:46.894Z,7.00
2022-08-28T06:09:15.555Z,7.00
2022-08-28T06:11:47.174Z,6.50
2022-08-28T06:14:19.774Z,5.97
2022-08-28T06:16:53.289Z,5.63
2022-08-28T06:19:25.733Z,6.30
2022-08-28T06:21:57.791Z,6.93
2022-08-28T06:24:27.653Z,6.50
2022-08-28T06:26:58.178Z,6.38
2022-08-28T06:29:27.804Z,6.57
2022-08-28T06:31:58.700Z,5.72
2022-08-28T06:34:34.133Z,10.77
2022-08-28T06:37:02.180Z,7.57
2022-08-28T06:39:29.559Z,5.72
2022-08-28T06:41:57.767Z,6.57
2022-08-28T06:44:25.083Z,5.95
2022-08-28T06:46:54.893Z,6.32
2022-08-28T06:49:23.563Z,6.95
2022-08-28T06:51:51.511Z,5.97
2022-08-28T06:54:23.298Z,6.18
2022-08-28T06:56:53.265Z,5.22
2022-08-28T06:59:21.314Z,6.03
2022-08-28T07:01:49.523Z,4.93
2022-08-28T07:04:17.202Z,5.13
2022-08-28T07:06:54.253Z,4.78
2022-08-28T07:09:24.274Z,4.35
2022-08-28T07:11:52.603Z,5.13
2022-08-28T07:14:20.084Z,4.20
2022-08-28T07:16:49.324Z,4.30
2022-08-28T07:19:18.358Z,4.25
2022-08-28T07:21:48.152Z,5.45
2022-08-28T07:24:18.614Z,5.03
2022-08-28T07:26:48.213Z,4.80
2022-08-28T07:29:16.306Z,4.35
2022-08-28T07:31:49.541Z,5.22
2022-08-28T07:34:19.880Z,4.30
2022-08-28T07:36:48.250Z,5.10
2022-08-28T07:39:15.911Z,4.28
2022-08-28T07:41:43.588Z,5.88
2022-08-28T07:44:32.341Z,4.90
2022-08-28T07:47:04.402Z,5.03
2022-08-28T07:49:34.369Z,4.53
2022-08-28T07:52:02.207Z,4.63
2022-08-28T07:54:31.912Z,4.60
2022-08-28T07:56:59.787Z,4.28
2022-08-28T07:59:28.784Z,4.95
2022-08-28T08:02:04.661Z,3.70
2022-08-28T08:04:32.089Z,4.28
2022-08-28T08:07:03.628Z,4.10
2022-08-28T08:09:31.879Z,3.70
2022-08-28T08:12:00.398Z,4.78
2022-08-28T08:14:29.776Z,4.18
2022-08-28T08:16:57.359Z,3.70
2022-08-28T08:19:28.687Z,5.15
2022-08-28T08:22:02.541Z,3.63
2022-08-28T08:24:31.094Z,4.10
2022-08-28T08:27:02.038Z,3.88
2022-08-28T08:29:35.961Z,4.40
2022-08-28T08:32:08.012Z,3.88
2022-08-28T08:34:39.753Z,4.50
2022-08-28T08:37:07.602Z,3.83
2022-08-28T08:39:36.644Z,4.38
2022-08-28T08:42:08.200Z,3.92
2022-08-28T08:44:38.974Z,4.07
2022-08-28T08:47:14.073Z,3.97
2022-08-28T08:49:51.024Z,3.97
2022-08-28T08:52:37.903Z,4.15
2022-08-28T08:55:21.779Z,3.67
2022-08-28T08:58:08.374Z,4.10
2022-08-28T09:01:02.169Z,4.40
2022-08-28T09:03:44.853Z,3.67
2022-08-28T09:06:24.447Z,4.13
2022-08-28T09:08:59.597Z,4.43
2022-08-28T09:11:33.446Z,4.47
2022-08-28T09:14:20.559Z,3.97
2022-08-28T09:16:48.775Z,4.03
2022-08-28T09:19:22.347Z,3.90
2022-08-28T09:21:51.952Z,4.93
2022-08-28T09:24:23.655Z,4.63
2022-08-28T09:27:04.528Z,4.00
2022-08-28T09:29:38.831Z,3.80
2022-08-28T09:32:26.564Z,4.15
2022-08-28T09:35:12.302Z,4.55
2022-08-28T09:37:41.485Z,4.13
2022-08-28T09:40:52.853Z,3.78
2022-08-28T09:43:28.855Z,4.03
2022-08-28T09:46:05.712Z,4.45
2022-08-28T09:48:43.583Z,4.25
2022-08-28T09:51:15.535Z,4.10
2022-08-28T09:53:58.111Z,3.97
2022-08-28T09:56:36.305Z,4.13
2022-08-28T09:59:12.083Z,3.78
2022-08-28T10:01:52.530Z,3.63
2022-08-28T10:04:47.607Z,3.65
2022-08-28T10:07:15.770Z,3.78
2022-08-28T10:10:09.473Z,5.32
2022-08-28T10:12:38.834Z,3.58
2022-08-28T10:15:13.676Z,4.38
2022-08-28T10:18:07.330Z,4.38
2022-08-28T10:20:37.641Z,3.97
2022-08-28T10:23:25.286Z,4.03
2022-08-28T10:26:00.469Z,3.55
2022-08-28T10:29:03.394Z,3.80
2022-08-28T10:31:41.121Z,3.92
2022-08-28T10:34:34.702Z,3.38
2022-08-28T10:37:31.384Z,3.70
2022-08-28T10:40:04.711Z,4.15
2022-08-28T10:42:40.860Z,3.63
2022-08-28T10:45:23.365Z,3.58
2022-08-28T10:47:59.939Z,4.10
2022-08-28T10:50:34.785Z,3.53
2022-08-28T10:53:07.323Z,4.00
2022-08-28T10:55:45.331Z,4.57
2022-08-28T10:58:24.331Z,4.55
2022-08-28T11:01:02.326Z,4.32
2022-08-28T11:03:35.240Z,3.88
2022-08-28T11:06:20.505Z,4.05
2022-08-28T11:08:58.816Z,4.32
2022-08-28T11:12:01.564Z,4.28
2022-08-28T11:14:48.121Z,3.17
2022-08-28T11:17:26.011Z,4.18
2022-08-28T11:20:07.841Z,3.90
2022-08-28T11:22:47.990Z,3.83
2022-08-28T11:25:42.747Z,3.95
2022-08-28T11:28:25.368Z,3.97
2022-08-28T11:30:59.496Z,4.35
2022-08-28T11:33:42.366Z,3.67
2022-08-28T11:36:30.195Z,3.38
2022-08-28T11:38:58.715Z,4.72
2022-08-28T11:41:39.251Z,4.70
2022-08-28T11:44:09.941Z,4.55
2022-08-28T11:46:52.484Z,4.45
2022-08-28T11:49:26.794Z,4.50
2022-08-28T11:52:10.983Z,4.45
2022-08-28T11:54:55.813Z,5.03
2022-08-28T11:57:28.899Z,5.03
2022-08-28T12:00:03.929Z,4.38
2022-08-28T12:02:40.622Z,4.70
2022-08-28T12:05:09.641Z,5.32
2022-08-28T12:07:48.634Z,4.90
2022-08-28T12:10:23.455Z,4.32
2022-08-28T12:13:03.301Z,4.70
2022-08-28T12:15:32.711Z,5.28
2022-08-28T12:18:13.278Z,5.00
2022-08-28T12:20:51.777Z,5.47
2022-08-28T12:23:37.570Z,4.72
2022-08-28T12:26:14.767Z,4.90
2022-08-28T12:28:57.051Z,4.70
2022-08-28T12:32:12.319Z,5.43
2022-08-28T12:34:55.440Z,4.47
2022-08-28T12:37:53.087Z,5.07
2022-08-28T12:40:33.818Z,5.00
2022-08-28T12:43:15.224Z,5.28
2022-08-28T12:45:57.297Z,5.07
2022-08-28T12:48:32.053Z,5.82
2022-08-28T12:51:11.104Z,5.75
2022-08-28T12:53:49.287Z,5.40
2022-08-28T12:56:20.029Z,5.15
2022-08-28T12:58:50.042Z,5.35
2022-08-28T13:01:31.553Z,6.22
2022-08-28T13:03:59.622Z,6.20
2022-08-28T13:06:28.997Z,5.25
2022-08-28T13:09:07.061Z,6.10
2022-08-28T13:11:40.614Z,5.90
2022-08-28T13:14:09.162Z,6.32
2022-08-28T13:16:46.736Z,5.82
2022-08-28T13:19:25.934Z,6.43
2022-08-28T13:22:02.001Z,5.32
2022-08-28T13:24:31.973Z,5.85
2022-08-28T13:27:07.709Z,5.97
2022-08-28T13:29:37.622Z,5.18
2022-08-28T13:32:15.681Z,5.18
2022-08-28T13:35:17.730Z,5.13
2022-08-28T13:37:50.676Z,5.68
2022-08-28T13:41:05.986Z,5.80
2022-08-28T13:43:21.723Z,5.45
2022-08-28T13:45:51.274Z,5.47
2022-08-28T13:48:24.712Z,5.47
2022-08-28T13:50:59.454Z,4.97
2022-08-28T13:53:27.092Z,4.97
2022-08-28T13:55:54.634Z,5.95
2022-08-28T13:58:22.121Z,5.60
2022-08-28T14:00:51.099Z,4.30
2022-08-28T14:03:38.232Z,5.68
2022-08-28T14:06:18.580Z,4.88
2022-08-28T14:09:17.785Z,4.85
2022-08-28T14:11:48.683Z,5.20
2022-08-28T14:14:24.122Z,5.22
2022-08-28T14:16:56.802Z,5.03
2022-08-28T14:19:26.167Z,5.00
2022-08-28T14:21:54.131Z,5.53
2022-08-28T14:24:24.947Z,5.90
2022-08-28T14:26:53.381Z,11.85
2022-08-28T14:29:21.608Z,10.73
2022-08-28T14:31:49.164Z,5.70
2022-08-28T14:34:22.534Z,5.68
2022-08-28T14:36:55.194Z,6.05
2022-08-28T14:39:27.789Z,6.15
2022-08-28T14:41:55.710Z,6.80
2022-08-28T14:44:24.792Z,6.38
2022-08-28T14:46:56.936Z,6.13
2022-08-28T14:49:25.968Z,6.13
2022-08-28T14:51:54.387Z,6.28
2022-08-28T14:54:24.390Z,5.68
2022-08-28T14:56:53.839Z,5.95
2022-08-28T14:59:25.309Z,5.85
2022-08-28T15:01:55.793Z,6.15
2022-08-28T15:04:26.227Z,5.47
2022-08-28T15:06:59.512Z,6.07
2022-08-28T15:09:28.307Z,5.93
2022-08-28T15:11:56.275Z,5.90
2022-08-28T15:14:24.121Z,5.95
2022-08-28T15:16:51.576Z,5.25
2022-08-28T15:19:20.133Z,5.00
2022-08-28T15:21:51.236Z,4.93
2022-08-28T15:24:22.589Z,5.07
2022-08-28T15:26:50.645Z,5.38
2022-08-28T15:29:18.629Z,5.00
2022-08-28T15:31:49.773Z,5.03
2022-08-28T15:34:23.724Z,5.00
2022-08-28T15:36:56.062Z,5.45
2022-08-28T15:39:44.706Z,5.32
2022-08-28T15:42:14.487Z,5.50
2022-08-28T15:44:42.563Z,4.82
2022-08-28T15:47:12.682Z,4.88
2022-08-28T15:49:44.756Z,4.43
2022-08-28T15:52:25.691Z,5.40
2022-08-28T15:54:55.051Z,5.18
2022-08-28T15:57:24.232Z,5.70
2022-08-28T15:59:55.191Z,5.43
2022-08-28T16:02:25.055Z,6.18
2022-08-28T16:04:55.368Z,5.38
2022-08-28T16:07:23.538Z,5.53
2022-08-28T16:09:52.936Z,5.55
2022-08-28T16:12:21.025Z,6.10
2022-08-28T16:14:50.510Z,5.82
2022-08-28T16:17:19.994Z,5.35
2022-08-28T16:19:47.959Z,5.05
2022-08-28T16:22:18.635Z,6.47
2022-08-28T16:24:46.676Z,5.47
2022-08-28T16:27:15.737Z,7.13
2022-08-28T16:29:45.578Z,5.22
2022-08-28T16:32:13.314Z,6.22
2022-08-28T16:34:44.619Z,5.60
2022-08-28T16:37:13.344Z,6.30
2022-08-28T16:39:46.859Z,5.82
2022-08-28T16:42:15.643Z,6.45
2022-08-28T16:44:46.904Z,5.60
2022-08-28T16:47:14.968Z,6.80
2022-08-28T16:49:43.328Z,6.95
2022-08-28T16:52:10.966Z,8.15
2022-08-28T16:54:38.634Z,7.20
2022-08-28T16:57:21.090Z,9.02
2022-08-28T16:59:52.959Z,6.32
2022-08-28T17:02:26.495Z,6.68
2022-08-28T17:05:00.567Z,7.03
2022-08-28T17:07:29.076Z,6.35
2022-08-28T17:09:56.572Z,17.02
2022-08-28T17:12:24.440Z,8.25
2022-08-28T17:14:51.853Z,7.18
2022-08-28T17:17:19.576Z,7.03
2022-08-28T17:19:46.830Z,5.55
2022-08-28T17:22:32.968Z,5.47
2022-08-28T17:25:02.349Z,7.30
2022-08-28T17:27:32.209Z,5.18
2022-08-28T17:30:02.157Z,5.85
2022-08-28T17:32:29.912Z,6.47
2022-08-28T17:34:57.887Z,6.30
2022-08-28T17:37:25.530Z,5.95
2022-08-28T17:39:53.664Z,6.35
2022-08-28T17:42:21.720Z,6.97
2022-08-28T17:44:49.287Z,6.20
2022-08-28T17:47:17.193Z,7.35
2022-08-28T17:49:49.324Z,6.72
2022-08-28T17:52:16.896Z,6.95
2022-08-28T17:54:44.958Z,6.57
2022-08-28T17:57:12.361Z,6.25
2022-08-28T17:59:40.442Z,6.78
2022-08-28T18:02:08.049Z,6.50
2022-08-28T18:04:37.094Z,5.85
2022-08-28T18:07:04.581Z,6.85
2022-08-28T18:09:32.760Z,6.50
2022-08-28T18:12:00.154Z,6.20
2022-08-28T18:14:28.452Z,6.40
2022-08-28T18:16:56.759Z,6.63
2022-08-28T18:19:25.434Z,6.13
2022-08-28T18:21:53.114Z,6.35
2022-08-28T18:24:21.889Z,7.13
2022-08-28T18:26:49.687Z,12.30
2022-08-28T18:29:17.961Z,6.75
2022-08-28T18:31:46.017Z,6.47
2022-08-28T18:34:14.328Z,6.30
2022-08-28T18:36:42.411Z,7.25
2022-08-28T18:39:11.570Z,5.93
2022-08-28T18:41:43.871Z,6.38
2022-08-28T18:44:15.732Z,6.28
2022-08-28T18:46:45.141Z,5.95
2022-08-28T18:49:13.853Z,6.82
2022-08-28T18:51:43.764Z,5.75
2022-08-28T18:54:16.394Z,6.55
2022-08-28T18:56:45.632Z,6.28
2022-08-28T18:59:13.359Z,6.05
2022-08-28T19:01:41.563Z,5.85
2022-08-28T19:04:09.022Z,5.72
2022-08-28T19:06:37.409Z,5.88
2022-08-28T19:09:05.933Z,6.18
2022-08-28T19:11:36.322Z,5.15
2022-08-28T19:14:04.285Z,6.55
2022-08-28T19:16:32.473Z,5.82
2022-08-28T19:19:02.241Z,5.50
2022-08-28T19:21:30.446Z,5.20
2022-08-28T19:24:00.540Z,5.88
2022-08-28T19:26:28.361Z,5.60
2022-08-28T19:28:56.333Z,5.97
2022-08-28T19:31:26.121Z,5.50
2022-08-28T19:33:53.865Z,5.60
2022-08-28T19:36:21.988Z,5.15
2022-08-28T19:38:49.502Z,5.18
2022-08-28T19:41:18.294Z,5.60
2022-08-28T19:43:45.806Z,6.28
2022-08-28T19:46:19.718Z,5.75
2022-08-28T19:48:52.847Z,6.47
2022-08-28T19:51:24.095Z,5.95
2022-08-28T19:53:57.985Z,5.40
2022-08-28T19:56:29.479Z,5.45
2022-08-28T19:58:59.464Z,5.30
2022-08-28T20:01:33.078Z,5.40
2022-08-28T20:04:01.274Z,5.25
2022-08-28T20:06:31.605Z,5.07
2022-08-28T20:08:59.776Z,5.43
2022-08-28T20:11:30.155Z,4.93
2022-08-28T20:14:05.556Z,4.85
2022-08-28T20:16:36.798Z,5.53
2022-08-28T20:19:07.627Z,5.13
2022-08-28T20:21:37.841Z,4.85
2022-08-28T20:24:10.840Z,4.97
2022-08-28T20:26:38.611Z,5.50
2022-08-28T20:29:07.707Z,5.50
2022-08-28T20:31:37.541Z,5.65
2022-08-28T20:34:05.054Z,5.38
2022-08-28T20:36:33.718Z,6.35
2022-08-28T20:39:04.949Z,6.22
2022-08-28T20:41:36.158Z,5.00
2022-08-28T20:44:08.134Z,6.18
2022-08-28T20:46:40.956Z,5.53
2022-08-28T20:49:14.796Z,5.53
2022-08-28T20:51:54.694Z,5.35
2022-08-28T20:54:27.274Z,5.65
2022-08-28T20:56:57.612Z,5.53
2022-08-28T20:59:28.802Z,5.70
2022-08-28T21:02:17.345Z,5.57
2022-08-28T21:04:46.751Z,5.60
2022-08-28T21:07:16.297Z,5.07
2022-08-28T21:10:05.373Z,6.57
2022-08-28T21:12:32.093Z,5.63
2022-08-28T21:15:00.181Z,6.07
2022-08-28T21:17:29.571Z,4.85
2022-08-28T21:20:05.706Z,5.28
2022-08-28T21:22:35.311Z,5.85
2022-08-28T21:25:09.887Z,5.88
2022-08-28T21:27:38.295Z,5.32
2022-08-28T21:30:07.666Z,6.32
2022-08-28T21:32:35.981Z,6.32
2022-08-28T21:35:05.299Z,6.10
2022-08-28T21:37:32.956Z,5.95
2022-08-28T21:40:01.494Z,5.43
2022-08-28T21:42:29.991Z,6.32
2022-08-28T21:44:58.933Z,5.63
2022-08-28T21:47:27.584Z,5.30
2022-08-28T21:49:57.549Z,5.63
2022-08-28T21:52:30.457Z,5.75
2022-08-28T21:55:01.153Z,6.50
2022-08-28T21:57:30.202Z,5.70
2022-08-28T21:59:59.199Z,6.50
2022-08-28T22:02:28.698Z,5.75
2022-08-28T22:04:57.934Z,5.97
2022-08-28T22:07:28.023Z,5.43
2022-08-28T22:09:59.066Z,5.72
2022-08-28T22:12:27.945Z,5.85
2022-08-28T22:14:59.526Z,5.75
2022-08-28T22:17:28.183Z,5.40
2022-08-28T22:19:56.648Z,5.82
2022-08-28T22:22:44.019Z,5.72
2022-08-28T22:25:12.452Z,5.70
2022-08-28T22:27:41.425Z,5.97
2022-08-28T22:30:10.625Z,6.15
2022-08-28T22:32:38.839Z,6.03
2022-08-28T22:35:08.435Z,5.38
2022-08-28T22:37:36.164Z,5.30
2022-08-28T22:40:09.522Z,5.45
2022-08-28T22:42:44.085Z,5.53
2022-08-28T22:45:12.100Z,5.50
2022-08-28T22:47:40.280Z,4.75
2022-08-28T22:50:09.281Z,5.93
2022-08-28T22:52:37.465Z,5.50
2022-08-28T22:55:12.535Z,5.40
2022-08-28T22:57:40.423Z,5.63
2022-08-28T23:00:13.072Z,5.95
2022-08-28T23:02:42.943Z,5.88
2022-08-28T23:05:11.306Z,5.38
2022-08-28T23:07:39.225Z,5.70
2022-08-28T23:10:08.310Z,5.55
2022-08-28T23:12:37.408Z,5.38
2022-08-28T23:15:08.158Z,5.25
2022-08-28T23:17:38.383Z,5.68
2022-08-28T23:20:11.531Z,5.55
2022-08-28T23:22:40.834Z,5.90
2022-08-28T23:25:09.174Z,5.90
2022-08-28T23:27:38.255Z,6.20
2022-08-28T23:30:07.318Z,6.03
2022-08-28T23:32:37.167Z,5.63
2022-08-28T23:35:07.334Z,4.78
2022-08-28T23:37:37.695Z,6.38
2022-08-28T23:40:09.521Z,6.28
2022-08-28T23:42:38.381Z,5.45
2022-08-28T23:45:06.857Z,6.07
2022-08-28T23:47:40.386Z,5.38
2022-08-28T23:50:11.613Z,4.00
2022-08-28T23:52:40.459Z,4.97
2022-08-28T23:55:09.809Z,6.10
2022-08-28T23:57:38.558Z,6.15
